createdAt,value
2022-10-04T00:02:19.557Z,13.90
2022-10-04T00:06:32.271Z,13.86
2022-10-04T00:10:44.273Z,13.85
2022-10-04T00:14:59.899Z,13.81
2022-10-04T00:19:14.314Z,13.83
2022-10-04T00:23:44.710Z,13.81
2022-10-04T00:28:21.175Z,13.84
2022-10-04T00:32:39.357Z,13.82
2022-10-04T00:36:55.496Z,13.76
2022-10-04T00:41:08.746Z,13.76
2022-10-04T00:45:29.050Z,13.75
2022-10-04T00:49:45.118Z,13.69
2022-10-04T00:54:12.295Z,13.65
2022-10-04T00:58:32.864Z,13.59
2022-10-04T01:03:02.716Z,13.52
2022-10-04T01:07:18.051Z,13.47
2022-10-04T01:11:35.384Z,13.48
2022-10-04T01:15:59.293Z,13.49
2022-10-04T01:20:37.073Z,13.50
2022-10-04T01:24:48.544Z,13.49
2022-10-04T01:28:59.999Z,13.49
2022-10-04T01:33:12.861Z,13.48
2022-10-04T01:37:24.526Z,13.43
2022-10-04T01:41:40.573Z,13.45
2022-10-04T01:46:01.092Z,13.41
2022-10-04T01:50:22.484Z,13.39
2022-10-04T01:54:39.212Z,13.32
2022-10-04T01:58:58.481Z,13.29
2022-10-04T02:03:35.181Z,13.27
2022-10-04T02:07:49.748Z,13.21
2022-10-04T02:12:02.379Z,13.21
2022-10-04T02:16:21.200Z,13.19
2022-10-04T02:20:33.953Z,13.19
2022-10-04T02:24:48.485Z,13.18
2022-10-04T02:29:00.132Z,13.17
2022-10-04T02:33:12.094Z,13.16
2022-10-04T02:37:26.309Z,13.09
2022-10-04T02:41:56.210Z,13.06
2022-10-04T02:46:16.744Z,12.98
2022-10-04T02:50:39.955Z,12.87
2022-10-04T02:55:02.606Z,12.80
2022-10-04T02:59:16.497Z,12.73
2022-10-04T03:03:34.592Z,12.64
2022-10-04T03:07:46.616Z,12.60
2022-10-04T03:11:59.014Z,12.53
2022-10-04T03:16:10.719Z,12.50
2022-10-04T03:20:22.630Z,12.45
2022-10-04T03:24:39.514Z,12.42
2022-10-04T03:28:51.365Z,12.37
2022-10-04T03:33:04.108Z,12.33
2022-10-04T03:37:19.197Z,12.24
2022-10-04T03:41:30.739Z,12.15
2022-10-04T03:45:42.378Z,12.04
2022-10-04T03:49:55.422Z,11.92
2022-10-04T03:54:07.552Z,11.82
2022-10-04T03:58:20.518Z,11.73
2022-10-04T04:02:52.558Z,11.66
2022-10-04T04:07:16.582Z,11.55
2022-10-04T04:11:29.009Z,11.46
2022-10-04T04:15:43.276Z,11.40
2022-10-04T04:20:00.460Z,11.30
2022-10-04T04:24:23.602Z,11.27
2022-10-04T04:28:56.565Z,11.23
2022-10-04T04:33:21.144Z,11.13
2022-10-04T04:37:35.353Z,11.11
2022-10-04T04:41:50.577Z,11.04
2022-10-04T04:46:26.168Z,10.99
2022-10-04T04:50:41.040Z,10.92
2022-10-04T04:54:54.937Z,10.89
2022-10-04T04:59:08.028Z,10.79
2022-10-04T05:03:19.886Z,10.78
2022-10-04T05:07:31.319Z,10.74
2022-10-04T05:11:42.908Z,10.70
2022-10-04T05:15:58.794Z,10.68
2022-10-04T05:20:13.636Z,10.64
2022-10-04T05:24:34.592Z,10.64
2022-10-04T05:28:46.077Z,10.64
2022-10-04T05:33:06.534Z,10.61
2022-10-04T05:37:59.425Z,10.62
2022-10-04T05:42:39.090Z,10.61
2022-10-04T05:46:51.189Z,10.59
2022-10-04T05:51:12.991Z,10.59
2022-10-04T05:55:28.911Z,10.60
2022-10-04T05:59:46.389Z,10.60
2022-10-04T06:04:26.969Z,10.62
2022-10-04T06:08:51.625Z,10.68
2022-10-04T06:13:29.988Z,10.75
2022-10-04T06:17:47.852Z,10.84
2022-10-04T06:22:20.596Z,10.93
2022-10-04T06:27:03.709Z,10.96
2022-10-04T06:31:36.142Z,11.00
2022-10-04T06:36:06.246Z,11.07
2022-10-04T06:40:56.024Z,11.12
2022-10-04T06:45:36.006Z,11.21
2022-10-04T06:50:34.589Z,11.31
2022-10-04T06:54:48.706Z,11.39
2022-10-04T06:59:18.570Z,11.44
2022-10-04T07:03:51.352Z,11.45
2022-10-04T07:08:30.898Z,11.47
2022-10-04T07:12:47.402Z,11.55
2022-10-04T07:17:05.137Z,11.84
2022-10-04T07:21:17.929Z,12.25
2022-10-04T07:25:42.157Z,12.62
2022-10-04T07:29:59.390Z,13.15
2022-10-04T07:34:17.070Z,14.20
2022-10-04T07:38:33.923Z,15.35
2022-10-04T07:42:59.775Z,16.95
2022-10-04T07:47:21.204Z,18.60
2022-10-04T07:51:57.618Z,19.92
2022-10-04T07:56:32.016Z,19.81
2022-10-04T08:01:03.725Z,19.76
2022-10-04T08:05:35.759Z,20.30
2022-10-04T08:10:18.299Z,21.18
2022-10-04T08:14:53.266Z,22.08
2022-10-04T08:19:29.051Z,22.95
2022-10-04T08:24:06.661Z,23.46
2022-10-04T08:28:57.372Z,24.02
2022-10-04T08:33:55.513Z,24.03
2022-10-04T08:38:21.266Z,23.55
2022-10-04T08:42:54.451Z,23.07
2022-10-04T08:47:38.740Z,23.20
2022-10-04T08:52:33.198Z,24.04
2022-10-04T08:57:05.898Z,24.89
2022-10-04T09:01:46.328Z,25.61
2022-10-04T09:06:06.890Z,25.87
2022-10-04T09:10:31.441Z,26.18
2022-10-04T09:15:16.808Z,26.39
2022-10-04T09:20:37.699Z,26.53
2022-10-04T09:25:09.109Z,26.66
2022-10-04T09:30:01.218Z,26.87
2022-10-04T09:34:24.331Z,26.86
2022-10-04T09:38:41.859Z,27.28
2022-10-04T09:43:19.421Z,27.45
2022-10-04T09:47:42.661Z,27.72
2022-10-04T09:52:16.036Z,27.86
2022-10-04T09:56:48.420Z,28.13
2022-10-04T10:01:13.975Z,28.12
2022-10-04T10:05:28.389Z,27.89
2022-10-04T10:10:22.666Z,27.88
2022-10-04T10:14:40.196Z,28.12
2022-10-04T10:19:29.230Z,28.31
2022-10-04T10:24:03.761Z,28.50
2022-10-04T10:28:41.302Z,28.29
2022-10-04T10:33:20.523Z,28.04
2022-10-04T10:38:17.144Z,27.90
2022-10-04T10:42:50.347Z,27.71
2022-10-04T10:47:31.120Z,27.69
2022-10-04T10:52:11.256Z,27.48
2022-10-04T10:57:03.419Z,27.34
2022-10-04T11:02:04.971Z,27.26
2022-10-04T11:06:38.917Z,26.92
2022-10-04T11:10:56.363Z,26.87
2022-10-04T11:15:33.000Z,26.80
2022-10-04T11:20:25.659Z,26.89
2022-10-04T11:25:04.774Z,27.20
2022-10-04T11:29:57.886Z,27.10
2022-10-04T11:34:24.645Z,26.89
2022-10-04T11:38:51.349Z,27.21
2022-10-04T11:43:24.445Z,26.92
2022-10-04T11:47:53.566Z,26.48
2022-10-04T11:52:49.790Z,26.25
2022-10-04T11:57:17.175Z,26.39
2022-10-04T12:02:07.070Z,26.13
2022-10-04T12:06:48.046Z,25.84
2022-10-04T12:11:23.757Z,25.51
2022-10-04T12:15:56.354Z,25.17
2022-10-04T12:20:32.711Z,24.78
2022-10-04T12:25:14.899Z,24.45
2022-10-04T12:29:45.361Z,24.12
2022-10-04T12:34:33.883Z,24.10
2022-10-04T12:39:03.581Z,23.98
2022-10-04T12:43:45.811Z,23.84
2022-10-04T12:48:26.729Z,23.81
2022-10-04T12:53:05.686Z,23.78
2022-10-04T12:57:47.769Z,23.46
2022-10-04T13:01:59.287Z,23.23
2022-10-04T13:06:23.852Z,23.40
2022-10-04T13:10:47.850Z,23.55
2022-10-04T13:15:24.771Z,23.57
2022-10-04T13:19:43.293Z,23.34
2022-10-04T13:24:07.255Z,23.16
2022-10-04T13:28:27.976Z,22.98
2022-10-04T13:33:10.762Z,22.77
2022-10-04T13:37:45.109Z,22.67
2022-10-04T13:41:56.613Z,22.51
2022-10-04T13:46:18.313Z,22.28
2022-10-04T13:50:40.892Z,22.21
2022-10-04T13:55:40.342Z,22.08
2022-10-04T14:00:15.089Z,22.04
2022-10-04T14:05:15.986Z,21.94
2022-10-04T14:09:45.923Z,21.93
2022-10-04T14:14:22.389Z,21.93
2022-10-04T14:19:11.420Z,21.85
2022-10-04T14:23:34.359Z,21.74
2022-10-04T14:28:10.757Z,21.70
2022-10-04T14:32:47.214Z,21.51
2022-10-04T14:36:58.742Z,21.41
2022-10-04T14:41:45.212Z,21.26
2022-10-04T14:46:27.817Z,21.22
2022-10-04T14:51:06.293Z,21.11
2022-10-04T14:55:57.807Z,21.11
2022-10-04T15:00:33.108Z,21.04
2022-10-04T15:05:14.027Z,21.14
2022-10-04T15:09:42.090Z,21.10
2022-10-04T15:13:55.999Z,21.10
2022-10-04T15:18:33.418Z,21.13
2022-10-04T15:22:53.771Z,21.30
2022-10-04T15:27:24.040Z,21.16
2022-10-04T15:32:05.261Z,21.07
2022-10-04T15:36:41.551Z,20.94
2022-10-04T15:41:06.182Z,20.78
2022-10-04T15:45:33.802Z,20.73
2022-10-04T15:49:53.087Z,20.62
2022-10-04T15:54:18.419Z,20.59
2022-10-04T15:58:54.435Z,20.45
2022-10-04T16:03:22.512Z,20.31
2022-10-04T16:08:13.572Z,20.26
2022-10-04T16:12:46.825Z,20.10
2022-10-04T16:17:32.506Z,19.92
2022-10-04T16:21:47.105Z,19.80
2022-10-04T16:26:14.039Z,19.71
2022-10-04T16:30:40.873Z,19.58
2022-10-04T16:35:27.332Z,19.50
2022-10-04T16:39:59.798Z,19.34
2022-10-04T16:44:59.459Z,19.23
2022-10-04T16:49:41.529Z,18.97
2022-10-04T16:54:27.130Z,18.89
2022-10-04T16:58:56.758Z,18.68
2022-10-04T17:03:20.573Z,18.51
2022-10-04T17:08:11.353Z,18.47
2022-10-04T17:12:29.675Z,18.25
2022-10-04T17:16:56.850Z,18.16
2022-10-04T17:21:30.364Z,18.04
2022-10-04T17:26:19.714Z,17.94
2022-10-04T17:30:55.256Z,17.85
2022-10-04T17:35:19.080Z,17.91
2022-10-04T17:39:52.979Z,18.00
2022-10-04T17:44:51.589Z,17.87
2022-10-04T17:50:03.284Z,17.84
2022-10-04T17:54:57.395Z,17.68
2022-10-04T17:59:26.300Z,17.50
2022-10-04T18:03:53.507Z,17.42
2022-10-04T18:08:07.917Z,17.28
2022-10-04T18:12:46.397Z,17.34
2022-10-04T18:17:03.251Z,17.28
2022-10-04T18:21:27.377Z,17.31
2022-10-04T18:25:41.321Z,17.20
2022-10-04T18:30:01.875Z,17.11
2022-10-04T18:34:15.143Z,17.03
2022-10-04T18:38:31.751Z,16.82
2022-10-04T18:43:00.250Z,16.83
2022-10-04T18:47:29.489Z,16.79
2022-10-04T18:51:44.009Z,16.91
2022-10-04T18:56:03.485Z,17.06
2022-10-04T19:00:33.621Z,17.12
2022-10-04T19:04:55.485Z,17.18
2022-10-04T19:09:58.898Z,17.25
2022-10-04T19:14:32.092Z,17.38
2022-10-04T19:18:57.977Z,17.42
2022-10-04T19:23:28.096Z,17.46
2022-10-04T19:27:56.411Z,17.47
2022-10-04T19:32:28.953Z,17.50
2022-10-04T19:36:58.513Z,17.47
2022-10-04T19:41:16.102Z,17.46
2022-10-04T19:45:50.825Z,17.43
2022-10-04T19:50:18.239Z,17.44
2022-10-04T19:54:39.566Z,17.42
2022-10-04T19:59:09.094Z,17.43
2022-10-04T20:03:20.560Z,17.38
2022-10-04T20:07:32.055Z,17.39
2022-10-04T20:11:49.382Z,17.36
2022-10-04T20:16:00.947Z,17.40
2022-10-04T20:20:38.780Z,17.39
2022-10-04T20:24:50.464Z,17.37
2022-10-04T20:29:01.989Z,17.36
2022-10-04T20:33:33.348Z,17.39
2022-10-04T20:37:44.775Z,17.36
2022-10-04T20:42:20.033Z,17.35
2022-10-04T20:46:38.016Z,17.31
2022-10-04T20:50:50.391Z,17.28
2022-10-04T20:55:02.938Z,17.26
2022-10-04T20:59:16.720Z,17.24
2022-10-04T21:03:28.273Z,17.22
2022-10-04T21:07:39.837Z,17.15
2022-10-04T21:11:53.238Z,17.18
2022-10-04T21:16:04.817Z,17.15
2022-10-04T21:20:52.053Z,17.11
2022-10-04T21:25:28.464Z,17.10
2022-10-04T21:29:39.985Z,17.10
2022-10-04T21:33:51.523Z,17.10
2022-10-04T21:38:03.054Z,17.08
2022-10-04T21:42:14.587Z,17.08
2022-10-04T21:46:26.144Z,17.01
2022-10-04T21:50:37.715Z,17.01
2022-10-04T21:54:49.277Z,17.05
2022-10-04T21:59:00.828Z,17.03
2022-10-04T22:03:12.534Z,17.07
2022-10-04T22:07:24.055Z,17.02
2022-10-04T22:11:36.389Z,17.02
2022-10-04T22:15:47.873Z,16.96
2022-10-04T22:19:59.387Z,17.00
2022-10-04T22:24:17.505Z,17.01
2022-10-04T22:28:30.621Z,16.98
2022-10-04T22:32:42.176Z,16.99
2022-10-04T22:36:53.677Z,16.97
2022-10-04T22:41:16.107Z,16.97
2022-10-04T22:45:30.892Z,16.97
2022-10-04T22:49:45.225Z,16.96
2022-10-04T22:53:56.794Z,16.93
2022-10-04T22:58:18.307Z,16.94
2022-10-04T23:02:30.624Z,16.91
2022-10-04T23:06:42.245Z,16.88
2022-10-04T23:11:02.891Z,16.84
2022-10-04T23:15:16.071Z,16.85
2022-10-04T23:19:27.765Z,16.87
2022-10-04T23:23:39.292Z,16.80
2022-10-04T23:27:50.810Z,16.81
2022-10-04T23:32:11.387Z,16.81
2022-10-04T23:36:23.402Z,16.82
2022-10-04T23:40:34.900Z,16.76
2022-10-04T23:44:50.477Z,16.74
2022-10-04T23:49:01.976Z,16.70
2022-10-04T23:53:26.632Z,16.68
2022-10-04T23:57:38.117Z,16.68
